KTUS/TUS METAR and TAF weather

Enter ICAO airport designator
Station Type Date Time Source
KTUS METAR 2019/10/15 03:53 UTC NOAA

KTUS 150353Z VRB04KT 10SM CLR 23/05 A2998 RMK AO2 SLP113 T02280050


Station Type Date Time Source
KTUS Decoded METAR 2019/10/15 03:53 UTC NOAA

TUCSON INTERNATIONAL AIRPORT , AZ, United States (KTUS) 32-08N 110-57W 786M
Oct 14, 2019 - 11:53 PM EDT / 2019.10.15 0353 UTC
Wind: Variable at 5 MPH (4 KT):0
Visibility: 10 mile(s):0
Sky conditions: clear
Temperature: 73.0 F (22.8 C)
Dew Point: 41.0 F (5.0 C)
Relative Humidity: 31%
Pressure (altimeter): 29.98 in. Hg (1015 hPa)
ob: KTUS 150353Z VRB04KT 10SM CLR 23/05 A2998 RMK AO2 SLP113 T02280050
cycle: 4

Station Type Date Time Source
KTUS TAF 2019/10/14 18:27 UTC NOAA

TAF KTUS 141725Z 1418/1518 13007KT P6SM FEW080
FM141900 29008KT P6SM SCT080
FM150200 22005KT P6SM BKN080
FM150600 17005KT P6SM BKN080

Example: see airport list